Time;durP1;ratioP1;P1;durP2;ratioP2;P2;SDS_P1;SDS_P2;PMS_P1;PMS_P2;Temp;Humidity;BMP_temperature;BMP_pressure;BME280_temperature;BME280_humidity;BME280_pressure;Samples;Min_cycle;Max_cycle;Signal;HPM_P1;HPM_P2
2022/06/14 00:01:24;;;;;;;2.17;1.33;;;16.20;86.40;;;;;;5014067;28;20483;-44
2022/06/14 00:03:51;;;;;;;5.27;1.70;;;16.10;86.70;;;;;;5013746;28;20921;-44
2022/06/14 00:06:22;;;;;;;5.07;1.50;;;16.20;87.20;;;;;;5013679;28;20921;-44
2022/06/14 00:08:49;;;;;;;3.47;1.40;;;15.80;86.40;;;;;;5013731;28;20877;-44
2022/06/14 00:11:18;;;;;;;2.20;1.43;;;15.80;86.30;;;;;;5013907;28;20436;-44
2022/06/14 00:13:45;;;;;;;4.03;1.40;;;15.70;85.90;;;;;;5013624;28;20444;-43
2022/06/14 00:16:14;;;;;;;3.13;1.17;;;15.70;85.70;;;;;;5015188;28;20433;-44
2022/06/14 00:18:41;;;;;;;6.47;2.00;;;15.70;85.70;;;;;;5019590;28;20456;-43
2022/06/14 00:21:08;;;;;;;5.13;1.47;;;15.60;85.40;;;;;;5019708;28;20475;-43
2022/06/14 00:23:36;;;;;;;2.00;1.30;;;15.50;85.10;;;;;;5019777;28;20435;-44
2022/06/14 00:26:04;;;;;;;2.30;1.70;;;15.60;85.10;;;;;;5017500;28;20433;-44
2022/06/14 00:28:33;;;;;;;5.57;1.57;;;15.50;85.00;;;;;;5017139;28;20965;-44
2022/06/14 00:31:02;;;;;;;3.63;1.33;;;15.60;85.10;;;;;;5016972;28;20937;-44
2022/06/14 00:33:28;;;;;;;3.40;1.50;;;15.50;84.80;;;;;;5016849;28;20439;-44
2022/06/14 00:35:59;;;;;;;4.93;1.57;;;15.70;85.00;;;;;;5016906;28;20443;-45
2022/06/14 00:38:26;;;;;;;4.13;1.40;;;15.50;84.70;;;;;;5017020;28;20468;-45
2022/06/14 00:40:56;;;;;;;5.40;1.63;;;15.60;84.90;;;;;;5015940;28;20440;-45
2022/06/14 00:43:23;;;;;;;7.03;1.87;;;15.40;84.70;;;;;;4998349;28;21001;-44
2022/06/14 00:46:13;;;;;;;7.33;2.27;;;15.20;84.40;;;;;;5015903;28;20470;-44
2022/06/14 00:48:43;;;;;;;6.37;1.27;;;15.60;84.90;;;;;;5015456;28;20459;-44
2022/06/14 00:51:17;;;;;;;2.90;1.30;;;15.30;84.50;;;;;;5015980;28;20427;-45
2022/06/14 00:53:50;;;;;;;4.33;1.30;;;15.30;84.50;;;;;;4998423;28;20509;-44
2022/06/14 00:56:23;;;;;;;3.93;1.50;;;15.20;84.30;;;;;;5016220;28;21025;-44
2022/06/14 00:58:54;;;;;;;3.13;1.50;;;15.20;84.30;;;;;;5015389;28;20459;-45
2022/06/14 01:01:26;;;;;;;5.63;1.37;;;15.10;84.00;;;;;;5015877;28;20867;-44
2022/06/14 01:03:56;;;;;;;5.07;1.50;;;15.10;84.00;;;;;;5015502;28;20428;-45
2022/06/14 01:06:30;;;;;;;2.50;1.40;;;15.00;83.90;;;;;;5015839;28;20441;-44
2022/06/14 01:09:04;;;;;;;7.40;1.37;;;15.00;83.80;;;;;;5015211;28;20459;-44
2022/06/14 01:11:37;;;;;;;3.93;1.93;;;15.00;83.60;;;;;;5015712;28;20435;-43
2022/06/14 01:14:05;;;;;;;4.20;1.60;;;14.90;83.40;;;;;;5015564;28;20796;-43
2022/06/14 01:16:33;;;;;;;6.00;1.60;;;14.90;83.40;;;;;;5015441;28;20903;-45
2022/06/14 01:19:00;;;;;;;2.30;1.30;;;15.00;83.40;;;;;;5015286;28;20562;-44
2022/06/14 01:21:27;;;;;;;3.50;1.70;;;14.80;83.30;;;;;;5015355;28;20437;-44
2022/06/14 01:23:55;;;;;;;5.67;1.47;;;14.80;83.30;;;;;;5015343;28;20441;-44
2022/06/14 01:26:24;;;;;;;7.80;1.60;;;14.60;83.30;;;;;;5015280;28;20435;-44
2022/06/14 01:28:56;;;;;;;5.83;1.50;;;14.70;83.50;;;;;;5013938;28;20670;-43
2022/06/14 01:31:25;;;;;;;2.97;1.40;;;14.70;83.70;;;;;;5015503;28;20445;-44
2022/06/14 01:33:56;;;;;;;4.90;1.33;;;14.50;83.60;;;;;;5015348;28;20439;-43
2022/06/14 01:36:27;;;;;;;5.70;2.10;;;14.60;83.90;;;;;;5015130;28;20928;-44
2022/06/14 01:38:55;;;;;;;7.60;1.50;;;14.50;83.90;;;;;;5014562;28;20856;-44
2022/06/14 01:41:33;;;;;;;5.40;1.97;;;14.50;84.20;;;;;;5014806;28;20441;-44
2022/06/14 01:44:12;;;;;;;3.13;1.43;;;14.70;84.50;;;;;;5015235;28;20802;-45
2022/06/14 01:46:48;;;;;;;3.73;1.60;;;14.50;84.20;;;;;;5015027;28;20465;-45
2022/06/14 01:52:19;;;;;;;3.80;1.73;;;14.60;84.70;;;;;;5014796;28;20486;-44
2022/06/14 01:54:55;;;;;;;6.33;1.50;;;14.60;85.20;;;;;;5014709;28;20785;-43
2022/06/14 01:57:30;;;;;;;6.67;1.60;;;14.30;84.90;;;;;;5014599;28;20530;-44
2022/06/14 02:00:04;;;;;;;6.33;1.67;;;14.30;85.30;;;;;;5014400;28;20545;-44
2022/06/14 02:02:43;;;;;;;6.47;1.67;;;14.20;85.20;;;;;;5014591;28;20465;-44
2022/06/14 02:05:18;;;;;;;8.27;1.47;;;14.20;85.40;;;;;;5014525;28;20927;-44
2022/06/14 02:07:51;;;;;;;5.57;2.00;;;14.00;85.80;;;;;;5014344;28;20442;-44
2022/06/14 02:10:25;;;;;;;4.40;1.73;;;13.70;85.60;;;;;;5013818;28;20542;-44
2022/06/14 02:12:57;;;;;;;3.37;1.37;;;14.10;86.00;;;;;;5014226;28;20477;-44
2022/06/14 02:15:31;;;;;;;3.80;2.00;;;14.10;86.10;;;;;;5014282;28;20431;-44
2022/06/14 02:18:04;;;;;;;4.33;1.40;;;14.10;86.50;;;;;;5014375;28;20442;-45
2022/06/14 02:20:36;;;;;;;7.83;1.80;;;13.70;86.50;;;;;;5013769;28;20472;-44
2022/06/14 02:23:06;;;;;;;10.10;1.60;;;13.80;86.50;;;;;;5014027;28;20482;-44
2022/06/14 02:25:40;;;;;;;9.17;2.23;;;13.90;86.90;;;;;;5013958;28;20440;-43
2022/06/14 02:28:13;;;;;;;5.77;1.90;;;14.30;87.50;;;;;;5014188;28;20440;-44
2022/06/14 02:30:45;;;;;;;4.77;1.77;;;14.00;87.50;;;;;;5014266;28;20443;-45
2022/06/14 02:33:18;;;;;;;6.67;1.77;;;14.20;87.70;;;;;;5014243;28;20435;-44
2022/06/14 02:35:51;;;;;;;3.20;1.43;;;14.00;87.40;;;;;;5014321;28;20439;-44
2022/06/14 02:38:25;;;;;;;7.43;1.93;;;13.70;87.60;;;;;;5013517;28;20501;-44
2022/06/14 02:41:00;;;;;;;2.80;1.40;;;13.90;87.90;;;;;;5014208;28;20442;-44
2022/06/14 02:43:32;;;;;;;7.77;1.77;;;14.00;88.00;;;;;;5013751;28;20482;-44
2022/06/14 02:46:03;;;;;;;3.13;1.40;;;13.90;88.30;;;;;;5013694;28;20442;-44
2022/06/14 02:48:36;;;;;;;2.43;1.37;;;13.90;88.50;;;;;;5013365;28;20957;-43
2022/06/14 02:51:08;;;;;;;14.73;2.40;;;14.10;88.70;;;;;;5013677;28;20437;-43
2022/06/14 02:53:37;;;;;;;3.60;2.07;;;13.90;88.50;;;;;;5013912;28;20446;-43
2022/06/14 02:56:11;;;;;;;3.33;1.73;;;13.80;88.80;;;;;;5013980;28;20445;-44
2022/06/14 02:58:47;;;;;;;10.80;2.50;;;13.90;89.10;;;;;;5013235;28;20465;-44
2022/06/14 03:01:18;;;;;;;7.70;1.80;;;13.80;89.00;;;;;;5013728;28;20449;-44
2022/06/14 03:03:50;;;;;;;5.50;1.80;;;13.90;89.30;;;;;;5013431;28;20478;-44
2022/06/14 03:06:25;;;;;;;5.90;2.10;;;13.70;89.10;;;;;;5013535;28;20797;-44
2022/06/14 03:08:57;;;;;;;3.60;1.90;;;13.90;89.10;;;;;;5012870;28;20463;-44
2022/06/14 03:11:34;;;;;;;7.97;2.23;;;14.00;89.50;;;;;;5013246;28;20439;-44
2022/06/14 03:14:06;;;;;;;4.40;2.37;;;13.90;89.60;;;;;;5013049;28;20438;-44
2022/06/14 03:16:37;;;;;;;8.20;1.80;;;14.00;89.80;;;;;;5013675;28;20440;-44
2022/06/14 03:19:11;;;;;;;7.93;1.80;;;13.90;89.70;;;;;;5012589;28;20454;-44
2022/06/14 03:21:45;;;;;;;5.63;2.17;;;13.90;90.10;;;;;;5013130;28;20441;-44
2022/06/14 03:24:19;;;;;;;4.20;1.60;;;14.00;89.60;;;;;;5013277;28;20472;-44
2022/06/14 03:26:56;;;;;;;5.33;1.90;;;14.00;89.80;;;;;;5012976;28;20441;-44
2022/06/14 03:29:29;;;;;;;6.43;2.20;;;14.00;89.80;;;;;;5012657;28;21004;-44
2022/06/14 03:32:03;;;;;;;5.07;2.03;;;14.10;90.00;;;;;;5013139;28;20442;-43
2022/06/14 03:34:33;;;;;;;12.97;2.97;;;14.20;90.10;;;;;;5012852;28;20810;-44
2022/06/14 03:37:00;;;;;;;4.60;2.10;;;14.00;89.90;;;;;;5012858;28;20459;-45
2022/06/14 03:39:32;;;;;;;4.07;1.90;;;14.10;90.10;;;;;;5012139;28;20935;-45
2022/06/14 03:42:03;;;;;;;6.47;1.80;;;14.10;90.20;;;;;;5012944;28;20525;-45
2022/06/14 03:44:30;;;;;;;4.50;2.17;;;14.10;90.30;;;;;;5012706;28;20439;-45
2022/06/14 03:47:16;;;;;;;7.40;2.23;;;14.10;90.40;;;;;;5013183;28;20462;-44
2022/06/14 03:49:46;;;;;;;5.20;1.97;;;14.20;90.40;;;;;;5012366;28;20458;-45
2022/06/14 03:52:29;;;;;;;6.43;2.10;;;14.00;90.30;;;;;;5012117;28;20798;-45
2022/06/14 03:55:05;;;;;;;13.20;2.80;;;14.00;90.30;;;;;;5012578;28;20438;-45
2022/06/14 03:57:46;;;;;;;5.20;2.30;;;13.50;90.10;;;;;;5012600;28;20447;-45
2022/06/14 04:00:22;;;;;;;6.67;2.07;;;14.10;90.50;;;;;;5012170;28;20841;-43
2022/06/14 04:03:03;;;;;;;6.47;2.20;;;14.20;90.50;;;;;;5012695;28;20483;-44
2022/06/14 04:05:43;;;;;;;5.10;2.50;;;14.30;90.50;;;;;;5013001;28;20430;-44
2022/06/14 04:08:20;;;;;;;6.10;2.10;;;14.30;90.50;;;;;;5012360;28;20527;-44
2022/06/14 04:10:52;;;;;;;7.87;2.60;;;14.10;90.30;;;;;;5012553;28;20440;-44
2022/06/14 04:13:34;;;;;;;7.97;2.13;;;14.50;90.30;;;;;;5012699;28;20438;-44
2022/06/14 04:16:08;;;;;;;6.87;2.63;;;14.50;90.30;;;;;;5012389;28;20432;-44
2022/06/14 04:18:42;;;;;;;7.37;2.37;;;14.60;90.20;;;;;;5011884;28;20463;-44
2022/06/14 04:21:23;;;;;;;7.77;2.40;;;14.60;90.10;;;;;;5012428;28;20428;-45
2022/06/14 04:23:57;;;;;;;4.93;2.17;;;14.80;90.10;;;;;;5012515;28;20490;-44
2022/06/14 04:26:30;;;;;;;6.70;2.13;;;14.50;89.80;;;;;;4994866;28;20451;-44
2022/06/14 04:29:02;;;;;;;5.87;2.60;;;14.50;89.80;;;;;;4994366;28;21025;-45
2022/06/14 04:31:32;;;;;;;5.73;2.43;;;15.10;90.10;;;;;;5012263;28;20431;-44
2022/06/14 04:34:07;;;;;;;8.30;2.20;;;15.00;90.00;;;;;;5012253;28;20510;-44
2022/06/14 04:36:36;;;;;;;3.37;2.20;;;14.70;89.60;;;;;;5012634;28;20532;-43
2022/06/14 04:39:08;;;;;;;7.10;2.43;;;15.00;89.60;;;;;;5012102;28;20516;-44
2022/06/14 04:41:37;;;;;;;9.97;2.53;;;15.10;89.30;;;;;;5012466;28;20431;-44
2022/06/14 04:44:10;;;;;;;6.60;2.23;;;15.00;88.60;;;;;;5012600;28;21022;-44
2022/06/14 04:46:42;;;;;;;7.00;1.90;;;15.00;88.20;;;;;;5013126;28;20797;-44
2022/06/14 04:49:16;;;;;;;8.53;2.07;;;15.70;88.50;;;;;;5012088;28;20459;-45
2022/06/14 04:51:47;;;;;;;6.37;2.37;;;15.00;87.10;;;;;;5012394;28;20949;-45
2022/06/14 04:54:19;;;;;;;8.17;2.80;;;15.70;87.20;;;;;;5012651;28;20435;-44
2022/06/14 04:56:53;;;;;;;8.73;2.03;;;15.80;86.60;;;;;;5012697;28;20487;-45
2022/06/14 04:59:27;;;;;;;4.50;1.93;;;15.80;85.80;;;;;;5012270;28;20848;-45
2022/06/14 05:01:58;;;;;;;7.00;2.37;;;15.80;85.90;;;;;;5013831;28;20451;-45
2022/06/14 05:04:30;;;;;;;5.70;2.27;;;15.70;85.80;;;;;;5015670;28;20486;-44
2022/06/14 05:07:02;;;;;;;9.50;2.57;;;15.60;85.70;;;;;;5015549;28;20435;-45
2022/06/14 05:09:32;;;;;;;10.33;2.60;;;15.80;85.50;;;;;;5017079;28;20534;-44
2022/06/14 05:12:03;;;;;;;6.13;2.37;;;15.90;85.20;;;;;;5017471;28;20450;-44
2022/06/14 05:14:36;;;;;;;7.30;2.30;;;15.70;84.70;;;;;;5015879;28;20468;-44
2022/06/14 05:17:07;;;;;;;5.80;2.67;;;15.90;84.40;;;;;;5015397;28;20544;-44
2022/06/14 05:19:43;;;;;;;11.40;2.60;;;16.10;84.40;;;;;;5016648;28;20472;-44
2022/06/14 05:22:14;;;;;;;10.53;2.47;;;16.20;84.30;;;;;;5016254;28;20428;-44
2022/06/14 05:24:42;;;;;;;4.83;2.03;;;16.20;84.10;;;;;;5016191;28;20516;-44
2022/06/14 05:27:35;;;;;;;6.60;2.17;;;16.30;83.90;;;;;;5016610;28;20441;-43
2022/06/14 05:30:08;;;;;;;7.50;2.27;;;16.40;83.50;;;;;;5015922;28;20818;-45
2022/06/14 05:32:44;;;;;;;9.07;2.47;;;16.50;83.40;;;;;;4998749;28;20936;-46
2022/06/14 05:35:23;;;;;;;8.67;2.13;;;16.60;83.20;;;;;;4998051;28;20452;-44
2022/06/14 05:37:56;;;;;;;10.70;3.53;;;16.50;82.70;;;;;;5015246;28;20438;-44
2022/06/14 05:40:29;;;;;;;12.27;2.83;;;16.60;82.70;;;;;;5014765;28;20475;-44
2022/06/14 05:42:59;;;;;;;5.87;1.87;;;16.70;82.70;;;;;;5014605;28;20977;-44
2022/06/14 05:45:29;;;;;;;8.60;2.30;;;16.60;82.30;;;;;;5014955;28;20443;-46
2022/06/14 05:48:02;;;;;;;6.70;2.17;;;16.70;82.50;;;;;;5014692;28;20445;-45
2022/06/14 05:50:38;;;;;;;19.53;2.73;;;16.70;82.30;;;;;;5014817;28;20442;-45
2022/06/14 05:53:09;;;;;;;10.77;3.40;;;16.90;82.50;;;;;;5014891;28;20432;-45
2022/06/14 05:55:39;;;;;;;8.10;2.60;;;17.20;82.60;;;;;;5014602;28;20548;-45
2022/06/14 05:58:11;;;;;;;5.87;2.83;;;17.00;81.90;;;;;;5014358;28;20619;-45
2022/06/14 06:00:44;;;;;;;12.27;2.70;;;16.90;81.80;;;;;;5014262;28;20495;-46
2022/06/14 06:03:20;;;;;;;20.70;4.50;;;17.00;81.90;;;;;;4996541;28;20475;-44
2022/06/14 06:05:53;;;;;;;6.90;2.17;;;16.80;81.90;;;;;;5014616;28;20488;-44
2022/06/14 06:08:26;;;;;;;10.73;2.13;;;17.00;82.50;;;;;;5014282;28;20468;-44
2022/06/14 06:10:56;;;;;;;7.37;2.80;;;16.60;82.10;;;;;;5015350;28;20428;-44
2022/06/14 06:13:28;;;;;;;8.47;2.67;;;17.00;82.40;;;;;;5013640;28;20482;-44
2022/06/14 06:16:03;;;;;;;9.67;2.50;;;17.30;82.00;;;;;;5014788;28;20422;-45
2022/06/14 06:18:34;;;;;;;11.03;2.80;;;17.20;81.60;;;;;;5014148;28;20462;-44
2022/06/14 06:21:06;;;;;;;11.63;3.10;;;17.30;81.20;;;;;;5014264;28;20419;-43
2022/06/14 06:23:38;;;;;;;4.87;2.23;;;17.50;81.20;;;;;;5015031;28;20480;-44
2022/06/14 06:26:06;;;;;;;6.57;2.03;;;18.00;81.10;;;;;;5015015;28;20434;-44
2022/06/14 06:28:38;;;;;;;10.27;2.30;;;18.20;80.40;;;;;;5013468;28;20470;-45
2022/06/14 06:31:11;;;;;;;8.80;3.20;;;18.20;79.50;;;;;;5015409;28;20852;-45
2022/06/14 06:33:41;;;;;;;8.50;2.67;;;18.30;79.10;;;;;;5014174;28;20435;-44
2022/06/14 06:36:35;;;;;;;8.70;3.10;;;18.50;78.60;;;;;;5014024;28;20804;-46
2022/06/14 06:39:12;;;;;;;6.83;2.67;;;18.50;77.20;;;;;;4995909;28;20481;-42
2022/06/14 06:41:51;;;;;;;5.03;2.10;;;18.20;76.50;;;;;;5012675;28;20438;-44
2022/06/14 06:44:23;;;;;;;4.83;2.00;;;18.40;76.60;;;;;;5012943;28;20999;-41
2022/06/14 06:46:58;;;;;;;10.87;2.87;;;18.50;75.80;;;;;;5012652;28;20435;-44
2022/06/14 06:49:31;;;;;;;8.23;3.83;;;18.60;75.50;;;;;;5012155;28;20458;-42
2022/06/14 06:52:04;;;;;;;9.47;2.40;;;18.60;75.20;;;;;;5012388;28;20431;-42
2022/06/14 06:54:38;;;;;;;15.50;2.27;;;18.60;75.20;;;;;;5012400;28;20431;-42
2022/06/14 06:57:07;;;;;;;8.03;2.30;;;18.60;75.30;;;;;;5012460;28;20470;-41
2022/06/14 06:59:38;;;;;;;5.37;2.20;;;18.80;75.30;;;;;;5012409;28;20455;-43
2022/06/14 07:02:16;;;;;;;18.07;2.90;;;18.80;75.10;;;;;;5012874;28;20733;-42
2022/06/14 07:07:38;;;;;;;13.13;2.50;;;19.00;74.70;;;;;;5007146;28;20562;-41
2022/06/14 07:10:15;;;;;;;5.00;1.73;;;18.80;74.20;;;;;;5011598;28;20471;-42
2022/06/14 07:12:47;;;;;;;10.53;3.37;;;18.90;73.90;;;;;;5012336;28;20798;-41
2022/06/14 07:15:18;;;;;;;10.07;2.70;;;18.70;73.90;;;;;;5012153;28;20522;-44
2022/06/14 07:17:54;;;;;;;8.53;2.50;;;18.50;73.70;;;;;;5012339;28;20805;-42
2022/06/14 07:20:33;;;;;;;6.90;2.67;;;18.90;74.10;;;;;;5011769;28;20463;-43
2022/06/14 07:23:05;;;;;;;8.77;2.13;;;19.00;73.50;;;;;;5012431;28;20471;-43
2022/06/14 07:25:35;;;;;;;7.93;2.43;;;18.80;72.90;;;;;;5011435;28;20446;-45
2022/06/14 07:28:06;;;;;;;7.23;2.07;;;19.00;73.10;;;;;;5012051;28;20441;-43
2022/06/14 07:30:38;;;;;;;10.60;2.13;;;19.00;72.60;;;;;;5011848;28;20483;-41
2022/06/14 07:33:06;;;;;;;8.87;2.13;;;19.00;72.60;;;;;;5012503;28;20444;-42
2022/06/14 07:35:43;;;;;;;9.30;2.67;;;19.00;72.60;;;;;;5012425;28;20471;-43
2022/06/14 07:38:17;;;;;;;5.50;1.90;;;19.10;72.50;;;;;;5011584;28;20433;-41
2022/06/14 07:40:52;;;;;;;4.90;2.27;;;19.10;72.10;;;;;;5012104;28;20439;-42
2022/06/14 07:43:26;;;;;;;9.13;2.77;;;19.20;71.70;;;;;;5012113;28;20447;-43
2022/06/14 07:45:53;;;;;;;11.53;3.07;;;19.00;71.40;;;;;;5012383;28;20447;-42
2022/06/14 07:48:27;;;;;;;5.90;2.27;;;19.20;71.60;;;;;;5011739;28;20471;-42
2022/06/14 07:50:59;;;;;;;13.23;3.00;;;19.10;70.90;;;;;;5012337;28;20750;-42
2022/06/14 07:53:31;;;;;;;6.73;2.70;;;19.30;70.90;;;;;;5012194;28;20791;-43
2022/06/14 07:56:05;;;;;;;14.57;2.83;;;19.50;70.90;;;;;;5011913;28;20798;-42
2022/06/14 07:58:38;;;;;;;10.13;2.13;;;19.40;70.50;;;;;;5011353;28;20980;-42
2022/06/14 08:01:08;;;;;;;14.13;3.57;;;19.50;70.20;;;;;;4993783;28;20463;-43
2022/06/14 08:03:41;;;;;;;7.03;1.93;;;19.40;70.00;;;;;;5011604;28;20498;-42
2022/06/14 08:06:13;;;;;;;7.23;2.20;;;19.40;69.80;;;;;;5011783;28;20448;-43
2022/06/14 08:08:43;;;;;;;7.00;2.70;;;19.70;69.80;;;;;;5011410;28;20470;-43
2022/06/14 08:11:15;;;;;;;11.17;3.03;;;19.70;69.60;;;;;;5011585;28;20431;-41
2022/06/14 08:13:49;;;;;;;11.67;2.57;;;19.80;69.20;;;;;;5011474;28;20438;-41
2022/06/14 08:16:16;;;;;;;10.10;2.67;;;19.70;68.70;;;;;;5011482;28;20435;-43
2022/06/14 08:18:51;;;;;;;12.23;2.63;;;19.90;68.80;;;;;;5011391;28;20464;-42
2022/06/14 08:21:22;;;;;;;7.63;2.20;;;19.80;68.20;;;;;;5011756;28;20442;-43
2022/06/14 08:23:54;;;;;;;7.93;2.47;;;19.80;68.20;;;;;;5011585;28;20472;-42
2022/06/14 08:26:28;;;;;;;5.03;1.53;;;19.80;67.30;;;;;;5011437;28;20960;-41
2022/06/14 08:29:00;;;;;;;3.73;1.43;;;19.80;66.60;;;;;;5011222;28;20872;-42
2022/06/14 08:31:34;;;;;;;7.60;3.30;;;19.70;64.50;;;;;;5011583;28;20445;-43
2022/06/14 08:34:09;;;;;;;9.37;2.27;;;19.50;64.70;;;;;;5011473;28;20498;-42
2022/06/14 08:36:44;;;;;;;10.03;3.10;;;19.80;64.10;;;;;;5011430;28;20539;-43
2022/06/14 08:39:17;;;;;;;7.10;1.77;;;19.70;63.60;;;;;;5014657;28;20479;-43
2022/06/14 08:41:55;;;;;;;23.20;4.10;;;19.80;62.90;;;;;;5015124;28;20466;-44
2022/06/14 08:44:23;;;;;;;7.03;2.10;;;19.50;62.70;;;;;;5013795;28;20582;-43
2022/06/14 08:47:02;;;;;;;14.70;3.20;;;19.60;62.60;;;;;;5014837;28;20873;-45
2022/06/14 08:49:43;;;;;;;6.73;2.30;;;19.90;62.80;;;;;;5014892;28;20451;-43
2022/06/14 08:52:42;;;;;;;3.90;1.20;;;19.70;62.70;;;;;;5015150;28;20451;-43
2022/06/14 08:55:27;;;;;;;6.20;1.77;;;20.10;62.50;;;;;;5015124;28;20443;-44
2022/06/14 08:58:18;;;;;;;4.47;1.87;;;20.10;62.20;;;;;;5014925;28;20440;-46
2022/06/14 09:00:57;;;;;;;4.87;2.13;;;20.30;60.20;;;;;;5014478;28;20463;-43
2022/06/14 09:03:37;;;;;;;9.37;1.83;;;20.40;60.60;;;;;;5014498;28;20440;-45
2022/06/14 09:06:40;;;;;;;6.13;1.57;;;20.40;59.20;;;;;;4997384;28;20521;-40
2022/06/14 09:09:32;;;;;;;6.93;2.57;;;20.30;59.80;;;;;;5014484;28;20454;-41
2022/06/14 09:12:25;;;;;;;9.63;2.03;;;20.40;59.70;;;;;;5015041;28;20433;-43
2022/06/14 09:15:19;;;;;;;6.47;1.60;;;20.30;59.00;;;;;;5014973;28;20487;-42
2022/06/14 09:18:02;;;;;;;6.53;1.37;;;20.50;58.70;;;;;;5014549;28;20447;-42
2022/06/14 09:20:37;;;;;;;4.80;1.70;;;20.40;59.40;;;;;;5014348;28;20435;-43
2022/06/14 09:23:17;;;;;;;4.13;1.37;;;20.20;59.10;;;;;;4997125;28;20877;-43
2022/06/14 09:26:11;;;;;;;6.90;1.60;;;19.90;58.20;;;;;;5014824;28;20479;-42
2022/06/14 09:29:13;;;;;;;4.30;1.20;;;20.10;58.90;;;;;;5014155;28;20499;-42
2022/06/14 09:31:59;;;;;;;5.23;1.37;;;20.30;58.40;;;;;;4984115;28;20441;-43
2022/06/14 09:34:52;;;;;;;4.13;1.37;;;20.10;58.30;;;;;;5014235;28;20495;-42
2022/06/14 09:37:45;;;;;;;4.43;1.73;;;20.30;58.30;;;;;;5011542;28;20928;-44
2022/06/14 09:40:33;;;;;;;4.20;1.47;;;20.30;57.10;;;;;;5014050;28;20481;-43
2022/06/14 09:43:36;;;;;;;5.87;1.53;;;20.50;57.10;;;;;;5014138;28;20805;-43
2022/06/14 09:46:23;;;;;;;4.50;1.77;;;20.70;57.40;;;;;;5014614;28;20899;-44
2022/06/14 09:49:18;;;;;;;3.43;1.30;;;20.40;57.40;;;;;;5012529;28;20457;-43
2022/06/14 09:52:24;;;;;;;8.00;1.60;;;20.50;57.20;;;;;;5014181;28;20460;-43
2022/06/14 09:55:26;;;;;;;6.33;1.47;;;20.60;57.60;;;;;;4996684;28;20457;-43
2022/06/14 09:58:15;;;;;;;5.17;1.50;;;20.60;57.80;;;;;;5013587;28;20812;-43
2022/06/14 10:00:49;;;;;;;3.70;1.70;;;20.70;58.20;;;;;;5013424;28;20443;-43
2022/06/14 10:03:52;;;;;;;5.93;1.70;;;20.30;58.40;;;;;;5013688;28;20451;-45
2022/06/14 10:06:44;;;;;;;5.93;2.13;;;19.90;58.40;;;;;;4977823;28;20499;-43
2022/06/14 10:09:41;;;;;;;4.10;1.27;;;20.40;58.80;;;;;;5013299;28;20456;-42
2022/06/14 10:12:28;;;;;;;7.10;1.80;;;20.50;58.60;;;;;;5013259;28;20444;-43
2022/06/14 10:15:01;;;;;;;6.50;1.90;;;20.50;58.70;;;;;;5013692;28;20440;-43
2022/06/14 10:18:07;;;;;;;4.83;1.80;;;20.70;58.80;;;;;;4996164;28;20445;-45
2022/06/14 10:20:54;;;;;;;6.10;1.90;;;20.60;58.60;;;;;;5012951;28;20446;-43
2022/06/14 10:23:56;;;;;;;4.13;1.67;;;20.80;58.80;;;;;;5013253;28;20448;-43
2022/06/14 10:29:53;;;;;;;4.80;1.50;;;21.00;58.10;;;;;;5012722;28;20975;-43
2022/06/14 10:32:50;;;;;;;5.40;1.47;;;21.00;57.80;;;;;;5013010;28;20437;-44
2022/06/14 10:35:21;;;;;;;2.87;1.20;;;21.20;57.20;;;;;;5013116;28;20473;-42
2022/06/14 10:38:14;;;;;;;5.10;2.47;;;21.20;57.10;;;;;;5013132;28;20433;-43
2022/06/14 10:40:53;;;;;;;5.70;1.80;;;21.30;56.60;;;;;;5012654;28;20444;-43
2022/06/14 10:43:31;;;;;;;6.67;1.57;;;21.60;57.20;;;;;;5012672;28;20446;-43
2022/06/14 10:46:08;;;;;;;3.97;1.50;;;21.20;57.00;;;;;;5013087;28;20479;-44
2022/06/14 10:48:54;;;;;;;9.00;2.07;;;21.20;57.00;;;;;;5012671;28;20957;-43
2022/06/14 10:51:37;;;;;;;10.23;2.30;;;21.30;57.20;;;;;;5012898;28;20515;-43
2022/06/14 10:54:15;;;;;;;7.97;2.40;;;21.20;56.80;;;;;;5012886;28;20434;-43
2022/06/14 10:56:59;;;;;;;6.93;2.30;;;21.50;56.80;;;;;;5012949;28;20442;-43
2022/06/14 10:59:42;;;;;;;6.67;2.10;;;21.40;57.10;;;;;;5011999;28;20982;-44
2022/06/14 11:02:18;;;;;;;4.40;1.70;;;21.60;56.80;;;;;;5012498;28;20889;-44
2022/06/14 11:04:52;;;;;;;3.73;1.70;;;21.20;56.30;;;;;;5011932;28;20489;-43
2022/06/14 11:07:51;;;;;;;2.77;1.30;;;21.70;56.50;;;;;;5012368;28;20609;-43
2022/06/14 11:10:32;;;;;;;6.43;2.00;;;21.80;56.00;;;;;;5011916;28;20468;-43
2022/06/14 11:13:08;;;;;;;2.93;1.40;;;21.50;55.90;;;;;;5011559;28;20435;-44
2022/06/14 11:15:42;;;;;;;5.53;2.53;;;21.60;56.10;;;;;;5010771;28;20442;-43
2022/06/14 11:18:37;;;;;;;4.23;1.47;;;21.20;55.60;;;;;;5011585;28;20430;-43
2022/06/14 11:21:17;;;;;;;6.70;1.60;;;21.80;55.60;;;;;;5011858;28;20439;-45
2022/06/14 11:23:49;;;;;;;3.17;1.50;;;21.50;55.90;;;;;;5012105;28;20490;-43
2022/06/14 11:26:23;;;;;;;6.97;2.07;;;21.50;56.40;;;;;;5012030;28;20481;-44
2022/06/14 11:28:53;;;;;;;6.33;1.60;;;21.50;56.40;;;;;;5011482;28;20513;-45
2022/06/14 11:31:30;;;;;;;5.47;1.70;;;21.60;56.50;;;;;;5012284;28;20523;-44
2022/06/14 11:34:12;;;;;;;4.07;1.80;;;21.60;56.50;;;;;;5011961;28;20837;-44
2022/06/14 11:36:49;;;;;;;4.23;1.40;;;21.60;56.60;;;;;;5011906;28;20531;-41
2022/06/14 11:39:31;;;;;;;10.87;1.87;;;21.60;56.80;;;;;;5012002;28;20507;-44
2022/06/14 11:42:02;;;;;;;5.50;1.70;;;21.60;56.30;;;;;;5012052;28;20900;-44
2022/06/14 11:44:51;;;;;;;10.00;1.80;;;21.70;56.20;;;;;;5012356;28;20426;-43
2022/06/14 11:47:24;;;;;;;4.93;2.10;;;21.70;55.70;;;;;;4995184;28;20462;-42
2022/06/14 11:50:01;;;;;;;6.67;1.40;;;21.80;55.60;;;;;;5011222;28;20542;-44
2022/06/14 11:52:42;;;;;;;7.27;2.13;;;21.80;55.10;;;;;;5011317;28;20443;-42
2022/06/14 11:55:20;;;;;;;5.63;2.07;;;21.60;54.90;;;;;;5011709;28;20803;-43
2022/06/14 11:57:56;;;;;;;5.00;1.60;;;22.10;55.20;;;;;;5011486;28;20506;-44
2022/06/14 12:00:35;;;;;;;7.13;1.83;;;22.20;54.60;;;;;;5011645;28;20459;-46
2022/06/14 12:03:11;;;;;;;3.47;1.50;;;22.20;54.10;;;;;;5011648;28;20439;-42
2022/06/14 12:05:47;;;;;;;7.30;1.70;;;22.30;54.50;;;;;;5011819;28;20499;-43
2022/06/14 12:08:48;;;;;;;3.93;1.43;;;22.50;54.80;;;;;;5011680;28;20441;-43
2022/06/14 12:11:24;;;;;;;10.73;2.00;;;22.40;54.70;;;;;;5011562;28;20447;-44
2022/06/14 12:14:32;;;;;;;4.57;1.70;;;22.10;54.70;;;;;;5015810;28;21007;-43
2022/06/14 12:17:09;;;;;;;3.70;1.40;;;21.90;54.70;;;;;;5015265;28;20501;-42
2022/06/14 12:19:36;;;;;;;3.43;1.40;;;22.00;54.90;;;;;;4997423;28;20489;-42
2022/06/14 12:22:28;;;;;;;3.83;1.73;;;21.80;54.80;;;;;;5015792;28;20964;-42
2022/06/14 12:27:46;;;;;;;4.90;1.80;;;22.00;54.90;;;;;;5015339;28;20442;-45
2022/06/14 12:30:16;;;;;;;4.50;1.60;;;21.80;54.40;;;;;;5015015;28;20459;-41
2022/06/14 12:32:52;;;;;;;4.90;1.80;;;21.80;54.40;;;;;;5015673;28;20443;-44
2022/06/14 12:35:23;;;;;;;4.30;2.00;;;22.10;54.20;;;;;;5015316;28;20995;-42
2022/06/14 12:38:00;;;;;;;5.77;1.83;;;22.10;53.60;;;;;;5015260;28;20426;-44
2022/06/14 12:40:34;;;;;;;4.70;1.40;;;22.20;53.80;;;;;;5015946;28;20468;-44
2022/06/14 12:43:05;;;;;;;9.33;1.77;;;22.10;53.70;;;;;;5016208;28;20464;-44
2022/06/14 12:45:39;;;;;;;4.80;1.90;;;22.20;53.80;;;;;;5016472;28;20567;-43
2022/06/14 12:48:20;;;;;;;2.93;1.30;;;22.30;54.00;;;;;;5016283;28;20807;-43
2022/06/14 12:50:50;;;;;;;3.23;1.30;;;22.20;53.50;;;;;;5016219;28;20454;-44
2022/06/14 12:53:27;;;;;;;3.93;1.23;;;21.90;53.00;;;;;;5016609;28;20545;-44
2022/06/14 12:55:57;;;;;;;5.27;2.90;;;22.10;53.70;;;;;;5016249;28;20477;-43
2022/06/14 12:58:34;;;;;;;4.10;1.30;;;22.00;53.80;;;;;;5016398;28;20999;-44
2022/06/14 13:01:09;;;;;;;8.03;1.73;;;22.10;53.70;;;;;;5016318;28;20442;-45
2022/06/14 13:03:48;;;;;;;3.17;1.87;;;22.30;53.80;;;;;;5015883;28;20771;-43
2022/06/14 13:06:40;;;;;;;3.43;1.47;;;22.30;53.50;;;;;;5016016;28;20486;-43
2022/06/14 13:09:30;;;;;;;6.90;1.70;;;22.30;53.10;;;;;;5015510;28;20554;-43
2022/06/14 13:12:15;;;;;;;4.40;1.40;;;22.60;53.40;;;;;;5015571;28;20804;-44
2022/06/14 13:14:49;;;;;;;4.63;1.47;;;22.30;52.60;;;;;;5016128;28;20432;-45
2022/06/14 13:17:29;;;;;;;6.07;1.60;;;22.20;52.90;;;;;;5016133;28;20781;-44
2022/06/14 13:19:59;;;;;;;3.13;1.20;;;22.30;52.30;;;;;;5015704;28;20557;-44
2022/06/14 13:22:55;;;;;;;2.80;1.23;;;22.40;52.30;;;;;;5015465;28;20516;-45
2022/06/14 13:25:36;;;;;;;5.03;1.80;;;22.20;52.30;;;;;;5015581;28;20478;-44
2022/06/14 13:28:16;;;;;;;6.60;1.87;;;22.00;52.50;;;;;;5015621;28;20436;-44
2022/06/14 13:30:50;;;;;;;6.90;1.50;;;22.10;52.80;;;;;;5014804;28;20434;-44
2022/06/14 13:33:31;;;;;;;5.27;1.60;;;21.90;52.60;;;;;;5014276;28;20446;-44
2022/06/14 13:36:09;;;;;;;3.93;2.00;;;22.20;52.10;;;;;;5015917;28;20531;-43
2022/06/14 13:38:40;;;;;;;5.57;2.20;;;22.30;52.40;;;;;;5014826;28;20468;-43
2022/06/14 13:41:14;;;;;;;4.03;1.30;;;22.30;52.50;;;;;;5016374;28;20437;-45
2022/06/14 13:43:50;;;;;;;6.50;2.03;;;22.20;52.30;;;;;;5015651;28;20428;-45